sensor_id;sensor_type;location;lat;lon;timestamp;pressure;altitude;pressure_sealevel;temperature;humidity
19447;BME280;9862;49.462;11.054;2024-02-21T00:01:51;98957.56;;;9.94;100.00
19447;BME280;9862;49.462;11.054;2024-02-21T00:04:17;98960.88;;;9.96;100.00
19447;BME280;9862;49.462;11.054;2024-02-21T00:06:44;98949.56;;;9.94;100.00
19447;BME280;9862;49.462;11.054;2024-02-21T00:09:11;98947.59;;;9.96;100.00
19447;BME280;9862;49.462;11.054;2024-02-21T00:11:38;98953.53;;;9.98;100.00
19447;BME280;9862;49.462;11.054;2024-02-21T00:14:05;98947.28;;;9.91;100.00
19447;BME280;9862;49.462;11.054;2024-02-21T00:16:32;98939.13;;;9.78;100.00
19447;BME280;9862;49.462;11.054;2024-02-21T00:18:58;98941.78;;;9.78;100.00
19447;BME280;9862;49.462;11.054;2024-02-21T00:21:25;98941.94;;;9.61;100.00
19447;BME280;9862;49.462;11.054;2024-02-21T00:23:52;98938.91;;;9.64;100.00
19447;BME280;9862;49.462;11.054;2024-02-21T00:26:18;98939.19;;;9.69;100.00
19447;BME280;9862;49.462;11.054;2024-02-21T00:28:46;98929.13;;;9.80;100.00
19447;BME280;9862;49.462;11.054;2024-02-21T00:31:13;98930.41;;;9.84;100.00
19447;BME280;9862;49.462;11.054;2024-02-21T00:33:40;98924.25;;;9.83;100.00
19447;BME280;9862;49.462;11.054;2024-02-21T00:36:07;98927.41;;;9.87;100.00
19447;BME280;9862;49.462;11.054;2024-02-21T00:38:33;98920.69;;;9.91;100.00
19447;BME280;9862;49.462;11.054;2024-02-21T00:41:00;98917.84;;;9.92;100.00
19447;BME280;9862;49.462;11.054;2024-02-21T00:43:27;98926.56;;;10.01;100.00
19447;BME280;9862;49.462;11.054;2024-02-21T00:45:55;98919.59;;;10.00;100.00
19447;BME280;9862;49.462;11.054;2024-02-21T00:48:22;98906.69;;;9.97;100.00
19447;BME280;9862;49.462;11.054;2024-02-21T00:50:49;98899.63;;;10.04;100.00
19447;BME280;9862;49.462;11.054;2024-02-21T00:53:15;98901.63;;;10.02;100.00
19447;BME280;9862;49.462;11.054;2024-02-21T00:55:42;98899.97;;;10.01;100.00
19447;BME280;9862;49.462;11.054;2024-02-21T00:58:09;98893.41;;;9.97;100.00
19447;BME280;9862;49.462;11.054;2024-02-21T01:00:35;98892.63;;;10.03;100.00
19447;BME280;9862;49.462;11.054;2024-02-21T01:03:04;98895.50;;;10.01;100.00
19447;BME280;9862;49.462;11.054;2024-02-21T01:05:30;98895.22;;;10.11;100.00
19447;BME280;9862;49.462;11.054;2024-02-21T01:07:57;98891.38;;;9.99;100.00
19447;BME280;9862;49.462;11.054;2024-02-21T01:10:24;98885.78;;;10.09;100.00
19447;BME280;9862;49.462;11.054;2024-02-21T01:12:50;98882.75;;;9.97;100.00
19447;BME280;9862;49.462;11.054;2024-02-21T01:15:17;98880.63;;;9.92;100.00
19447;BME280;9862;49.462;11.054;2024-02-21T01:17:44;98874.97;;;9.95;100.00
19447;BME280;9862;49.462;11.054;2024-02-21T01:20:12;98869.91;;;10.00;100.00
19447;BME280;9862;49.462;11.054;2024-02-21T01:22:39;98873.41;;;10.01;100.00
19447;BME280;9862;49.462;11.054;2024-02-21T01:25:07;98853.50;;;9.97;100.00
19447;BME280;9862;49.462;11.054;2024-02-21T01:27:34;98863.78;;;10.00;100.00
19447;BME280;9862;49.462;11.054;2024-02-21T01:30:00;98868.91;;;10.01;100.00
19447;BME280;9862;49.462;11.054;2024-02-21T01:32:27;98860.38;;;10.06;100.00
19447;BME280;9862;49.462;11.054;2024-02-21T01:34:54;98857.16;;;10.11;100.00
19447;BME280;9862;49.462;11.054;2024-02-21T01:37:22;98859.28;;;10.15;100.00
19447;BME280;9862;49.462;11.054;2024-02-21T01:39:49;98864.22;;;10.18;100.00
19447;BME280;9862;49.462;11.054;2024-02-21T01:42:16;98856.88;;;10.20;100.00
19447;BME280;9862;49.462;11.054;2024-02-21T01:44:42;98854.53;;;10.25;100.00
19447;BME280;9862;49.462;11.054;2024-02-21T01:47:10;98851.03;;;10.25;100.00
19447;BME280;9862;49.462;11.054;2024-02-21T01:49:39;98850.84;;;10.26;100.00
19447;BME280;9862;49.462;11.054;2024-02-21T01:52:05;98849.56;;;10.22;100.00
19447;BME280;9862;49.462;11.054;2024-02-21T01:54:34;98838.91;;;10.22;100.00
19447;BME280;9862;49.462;11.054;2024-02-21T01:57:01;98834.31;;;10.16;100.00
19447;BME280;9862;49.462;11.054;2024-02-21T01:59:28;98835.97;;;10.17;100.00
19447;BME280;9862;49.462;11.054;2024-02-21T02:01:55;98834.66;;;10.13;100.00
19447;BME280;9862;49.462;11.054;2024-02-21T02:04:22;98827.00;;;10.33;100.00
19447;BME280;9862;49.462;11.054;2024-02-21T02:06:50;98828.25;;;10.37;100.00
19447;BME280;9862;49.462;11.054;2024-02-21T02:09:18;98834.31;;;10.31;100.00
19447;BME280;9862;49.462;11.054;2024-02-21T02:11:46;98837.63;;;10.18;100.00
19447;BME280;9862;49.462;11.054;2024-02-21T02:14:13;98836.78;;;10.18;100.00
19447;BME280;9862;49.462;11.054;2024-02-21T02:16:39;98837.16;;;10.15;100.00
19447;BME280;9862;49.462;11.054;2024-02-21T02:19:06;98827.25;;;10.09;100.00
19447;BME280;9862;49.462;11.054;2024-02-21T02:21:39;98829.47;;;9.90;100.00
19447;BME280;9862;49.462;11.054;2024-02-21T02:24:09;98819.56;;;9.84;100.00
19447;BME280;9862;49.462;11.054;2024-02-21T02:26:35;98824.00;;;9.77;100.00
19447;BME280;9862;49.462;11.054;2024-02-21T02:29:02;98818.88;;;9.75;100.00
19447;BME280;9862;49.462;11.054;2024-02-21T02:31:29;98816.66;;;9.79;100.00
19447;BME280;9862;49.462;11.054;2024-02-21T02:33:55;98805.19;;;9.79;100.00
19447;BME280;9862;49.462;11.054;2024-02-21T02:36:23;98804.09;;;9.88;100.00
19447;BME280;9862;49.462;11.054;2024-02-21T02:38:49;98800.63;;;9.87;100.00
19447;BME280;9862;49.462;11.054;2024-02-21T02:41:17;98794.72;;;9.92;100.00
19447;BME280;9862;49.462;11.054;2024-02-21T02:43:44;98796.38;;;9.93;100.00
19447;BME280;9862;49.462;11.054;2024-02-21T02:46:11;98782.63;;;10.04;100.00
19447;BME280;9862;49.462;11.054;2024-02-21T02:48:38;98776.94;;;10.07;100.00
19447;BME280;9862;49.462;11.054;2024-02-21T02:51:04;98774.81;;;10.02;100.00
19447;BME280;9862;49.462;11.054;2024-02-21T02:53:31;98775.28;;;10.06;100.00
19447;BME280;9862;49.462;11.054;2024-02-21T02:55:58;98780.94;;;10.03;100.00
19447;BME280;9862;49.462;11.054;2024-02-21T02:58:26;98779.59;;;10.07;100.00
19447;BME280;9862;49.462;11.054;2024-02-21T03:00:52;98770.97;;;10.05;100.00
19447;BME280;9862;49.462;11.054;2024-02-21T03:03:19;98767.66;;;10.03;100.00
19447;BME280;9862;49.462;11.054;2024-02-21T03:05:46;98769.19;;;10.12;100.00
19447;BME280;9862;49.462;11.054;2024-02-21T03:08:13;98760.03;;;10.15;100.00
19447;BME280;9862;49.462;11.054;2024-02-21T03:10:40;98764.25;;;10.09;100.00
19447;BME280;9862;49.462;11.054;2024-02-21T03:13:07;98759.22;;;10.14;100.00
19447;BME280;9862;49.462;11.054;2024-02-21T03:15:37;98765.38;;;10.00;100.00
19447;BME280;9862;49.462;11.054;2024-02-21T03:18:05;98763.34;;;10.02;100.00
19447;BME280;9862;49.462;11.054;2024-02-21T03:20:34;98770.66;;;9.79;100.00
19447;BME280;9862;49.462;11.054;2024-02-21T03:23:03;98758.19;;;9.79;100.00
19447;BME280;9862;49.462;11.054;2024-02-21T03:25:31;98766.34;;;9.78;100.00
19447;BME280;9862;49.462;11.054;2024-02-21T03:27:59;98759.00;;;9.80;100.00
19447;BME280;9862;49.462;11.054;2024-02-21T03:30:28;98746.81;;;9.85;100.00
19447;BME280;9862;49.462;11.054;2024-02-21T03:32:56;98754.13;;;9.83;100.00
19447;BME280;9862;49.462;11.054;2024-02-21T03:35:23;98758.63;;;9.83;100.00
19447;BME280;9862;49.462;11.054;2024-02-21T03:37:51;98756.69;;;9.91;100.00
19447;BME280;9862;49.462;11.054;2024-02-21T03:40:18;98747.50;;;9.94;100.00
19447;BME280;9862;49.462;11.054;2024-02-21T03:42:45;98748.28;;;9.88;100.00
19447;BME280;9862;49.462;11.054;2024-02-21T03:45:12;98754.13;;;9.98;100.00
19447;BME280;9862;49.462;11.054;2024-02-21T03:47:38;98757.78;;;9.97;100.00
19447;BME280;9862;49.462;11.054;2024-02-21T03:50:07;98744.78;;;9.87;100.00
19447;BME280;9862;49.462;11.054;2024-02-21T03:52:34;98743.38;;;9.91;100.00
19447;BME280;9862;49.462;11.054;2024-02-21T03:55:01;98739.81;;;9.84;100.00
19447;BME280;9862;49.462;11.054;2024-02-21T03:57:28;98746.44;;;9.88;100.00
19447;BME280;9862;49.462;11.054;2024-02-21T03:59:55;98735.38;;;9.70;100.00
19447;BME280;9862;49.462;11.054;2024-02-21T04:02:21;98734.72;;;9.68;100.00
19447;BME280;9862;49.462;11.054;2024-02-21T04:04:48;98729.84;;;9.71;100.00
19447;BME280;9862;49.462;11.054;2024-02-21T04:07:17;98723.34;;;9.74;100.00
19447;BME280;9862;49.462;11.054;2024-02-21T04:09:44;98718.50;;;9.63;100.00
19447;BME280;9862;49.462;11.054;2024-02-21T04:12:10;98710.09;;;9.59;100.00
19447;BME280;9862;49.462;11.054;2024-02-21T04:14:37;98712.66;;;9.67;100.00
19447;BME280;9862;49.462;11.054;2024-02-21T04:17:05;98716.38;;;9.73;100.00
19447;BME280;9862;49.462;11.054;2024-02-21T04:19:32;98715.84;;;9.78;100.00
19447;BME280;9862;49.462;11.054;2024-02-21T04:21:59;98715.31;;;9.67;100.00
19447;BME280;9862;49.462;11.054;2024-02-21T04:24:27;98710.81;;;9.53;100.00
19447;BME280;9862;49.462;11.054;2024-02-21T04:26:54;98719.72;;;9.60;100.00
19447;BME280;9862;49.462;11.054;2024-02-21T04:29:21;98721.50;;;9.74;100.00
19447;BME280;9862;49.462;11.054;2024-02-21T04:31:48;98716.03;;;9.61;100.00
19447;BME280;9862;49.462;11.054;2024-02-21T04:34:15;98723.03;;;9.48;100.00
19447;BME280;9862;49.462;11.054;2024-02-21T04:36:42;98712.41;;;9.48;100.00
19447;BME280;9862;49.462;11.054;2024-02-21T04:39:08;98707.28;;;9.46;100.00
19447;BME280;9862;49.462;11.054;2024-02-21T04:41:38;98715.25;;;9.46;100.00
19447;BME280;9862;49.462;11.054;2024-02-21T04:44:04;98700.56;;;9.50;100.00
19447;BME280;9862;49.462;11.054;2024-02-21T04:46:31;98702.41;;;9.50;100.00
19447;BME280;9862;49.462;11.054;2024-02-21T04:48:58;98701.84;;;9.25;100.00
19447;BME280;9862;49.462;11.054;2024-02-21T04:51:24;98700.22;;;9.24;100.00
19447;BME280;9862;49.462;11.054;2024-02-21T04:53:51;98687.28;;;9.35;100.00
19447;BME280;9862;49.462;11.054;2024-02-21T04:56:18;98690.56;;;9.52;100.00
19447;BME280;9862;49.462;11.054;2024-02-21T04:58:46;98683.25;;;9.54;100.00
19447;BME280;9862;49.462;11.054;2024-02-21T05:01:12;98681.41;;;9.55;100.00
19447;BME280;9862;49.462;11.054;2024-02-21T05:03:39;98678.94;;;9.53;100.00
19447;BME280;9862;49.462;11.054;2024-02-21T05:06:06;98683.66;;;9.72;100.00
19447;BME280;9862;49.462;11.054;2024-02-21T05:08:33;98682.41;;;9.68;100.00
19447;BME280;9862;49.462;11.054;2024-02-21T05:10:59;98667.09;;;9.70;100.00
19447;BME280;9862;49.462;11.054;2024-02-21T05:13:26;98658.78;;;9.59;100.00
19447;BME280;9862;49.462;11.054;2024-02-21T05:15:54;98655.50;;;9.57;100.00
19447;BME280;9862;49.462;11.054;2024-02-21T05:18:21;98642.38;;;9.55;100.00
19447;BME280;9862;49.462;11.054;2024-02-21T05:20:47;98654.47;;;9.58;100.00
19447;BME280;9862;49.462;11.054;2024-02-21T05:23:14;98648.41;;;9.64;100.00
19447;BME280;9862;49.462;11.054;2024-02-21T05:25:41;98653.72;;;9.64;100.00
19447;BME280;9862;49.462;11.054;2024-02-21T05:28:07;98651.25;;;9.62;100.00
19447;BME280;9862;49.462;11.054;2024-02-21T05:30:34;98655.56;;;9.63;100.00
19447;BME280;9862;49.462;11.054;2024-02-21T05:33:05;98652.44;;;9.60;100.00
19447;BME280;9862;49.462;11.054;2024-02-21T05:35:32;98651.72;;;9.51;100.00
19447;BME280;9862;49.462;11.054;2024-02-21T05:37:59;98641.75;;;9.53;100.00
19447;BME280;9862;49.462;11.054;2024-02-21T05:40:26;98650.53;;;9.54;100.00
19447;BME280;9862;49.462;11.054;2024-02-21T05:42:53;98657.56;;;9.61;100.00
19447;BME280;9862;49.462;11.054;2024-02-21T05:45:20;98657.78;;;9.60;100.00
19447;BME280;9862;49.462;11.054;2024-02-21T05:47:47;98655.22;;;9.52;100.00
19447;BME280;9862;49.462;11.054;2024-02-21T05:50:15;98650.81;;;9.59;100.00
19447;BME280;9862;49.462;11.054;2024-02-21T05:52:42;98644.22;;;9.55;100.00
19447;BME280;9862;49.462;11.054;2024-02-21T05:55:09;98642.56;;;9.54;100.00
19447;BME280;9862;49.462;11.054;2024-02-21T05:57:36;98636.06;;;9.56;100.00
19447;BME280;9862;49.462;11.054;2024-02-21T06:00:06;98633.06;;;9.81;100.00
19447;BME280;9862;49.462;11.054;2024-02-21T06:02:33;98643.66;;;9.95;100.00
19447;BME280;9862;49.462;11.054;2024-02-21T06:04:59;98643.38;;;9.90;100.00
19447;BME280;9862;49.462;11.054;2024-02-21T06:07:27;98642.56;;;9.90;100.00
19447;BME280;9862;49.462;11.054;2024-02-21T06:09:54;98644.19;;;9.91;100.00
19447;BME280;9862;49.462;11.054;2024-02-21T06:12:21;98637.16;;;9.83;100.00
19447;BME280;9862;49.462;11.054;2024-02-21T06:14:47;98650.41;;;9.77;100.00
19447;BME280;9862;49.462;11.054;2024-02-21T06:17:14;98647.56;;;9.63;100.00
19447;BME280;9862;49.462;11.054;2024-02-21T06:19:42;98628.34;;;9.61;100.00
19447;BME280;9862;49.462;11.054;2024-02-21T06:22:09;98634.88;;;9.59;100.00
19447;BME280;9862;49.462;11.054;2024-02-21T06:24:37;98634.88;;;9.59;100.00
19447;BME280;9862;49.462;11.054;2024-02-21T06:27:05;98636.22;;;9.69;100.00
19447;BME280;9862;49.462;11.054;2024-02-21T06:29:32;98641.78;;;9.74;100.00
19447;BME280;9862;49.462;11.054;2024-02-21T06:31:59;98649.13;;;9.72;100.00
19447;BME280;9862;49.462;11.054;2024-02-21T06:34:26;98653.06;;;9.77;100.00
19447;BME280;9862;49.462;11.054;2024-02-21T06:36:52;98657.25;;;9.86;100.00
19447;BME280;9862;49.462;11.054;2024-02-21T06:39:19;98655.66;;;9.55;100.00
19447;BME280;9862;49.462;11.054;2024-02-21T06:41:50;98656.81;;;9.46;100.00
19447;BME280;9862;49.462;11.054;2024-02-21T06:44:16;98655.13;;;9.45;100.00
19447;BME280;9862;49.462;11.054;2024-02-21T06:46:43;98663.75;;;9.47;100.00
19447;BME280;9862;49.462;11.054;2024-02-21T06:49:13;98669.16;;;9.39;100.00
19447;BME280;9862;49.462;11.054;2024-02-21T06:51:41;98659.19;;;9.41;100.00
19447;BME280;9862;49.462;11.054;2024-02-21T06:54:09;98659.19;;;9.41;100.00
19447;BME280;9862;49.462;11.054;2024-02-21T06:56:36;98651.41;;;9.39;100.00
19447;BME280;9862;49.462;11.054;2024-02-21T06:59:04;98651.50;;;9.46;100.00
19447;BME280;9862;49.462;11.054;2024-02-21T07:01:32;98649.34;;;9.56;100.00
19447;BME280;9862;49.462;11.054;2024-02-21T07:03:59;98650.50;;;9.68;100.00
19447;BME280;9862;49.462;11.054;2024-02-21T07:06:25;98648.25;;;9.87;100.00
19447;BME280;9862;49.462;11.054;2024-02-21T07:08:52;98637.34;;;9.82;100.00
19447;BME280;9862;49.462;11.054;2024-02-21T07:11:19;98631.22;;;9.81;100.00
19447;BME280;9862;49.462;11.054;2024-02-21T07:13:45;98637.25;;;9.90;100.00
19447;BME280;9862;49.462;11.054;2024-02-21T07:16:13;98635.59;;;9.89;100.00
19447;BME280;9862;49.462;11.054;2024-02-21T07:18:40;98643.00;;;9.93;100.00
19447;BME280;9862;49.462;11.054;2024-02-21T07:21:07;98640.16;;;9.95;100.00
19447;BME280;9862;49.462;11.054;2024-02-21T07:23:34;98645.72;;;10.00;100.00
19447;BME280;9862;49.462;11.054;2024-02-21T07:26:00;98643.06;;;10.00;100.00
19447;BME280;9862;49.462;11.054;2024-02-21T07:28:27;98638.34;;;9.95;100.00
19447;BME280;9862;49.462;11.054;2024-02-21T07:30:54;98642.94;;;9.87;100.00
19447;BME280;9862;49.462;11.054;2024-02-21T07:33:22;98637.97;;;9.84;100.00
19447;BME280;9862;49.462;11.054;2024-02-21T07:35:48;98630.81;;;9.84;100.00
19447;BME280;9862;49.462;11.054;2024-02-21T07:38:15;98637.25;;;9.90;100.00
19447;BME280;9862;49.462;11.054;2024-02-21T07:40:44;98624.22;;;9.95;100.00
19447;BME280;9862;49.462;11.054;2024-02-21T07:43:10;98629.25;;;10.11;100.00
19447;BME280;9862;49.462;11.054;2024-02-21T07:45:37;98627.31;;;9.98;100.00
19447;BME280;9862;49.462;11.054;2024-02-21T07:48:05;98629.56;;;10.01;100.00
19447;BME280;9862;49.462;11.054;2024-02-21T07:50:33;98617.44;;;10.14;100.00
19447;BME280;9862;49.462;11.054;2024-02-21T07:53:00;98624.13;;;10.10;100.00
19447;BME280;9862;49.462;11.054;2024-02-21T07:55:28;98616.75;;;10.05;100.00
19447;BME280;9862;49.462;11.054;2024-02-21T07:57:54;98618.19;;;10.08;100.00
19447;BME280;9862;49.462;11.054;2024-02-21T08:00:21;98629.03;;;10.06;100.00
19447;BME280;9862;49.462;11.054;2024-02-21T08:02:48;98632.44;;;10.00;100.00
19447;BME280;9862;49.462;11.054;2024-02-21T08:05:15;98623.75;;;9.70;100.00
19447;BME280;9862;49.462;11.054;2024-02-21T08:07:43;98624.16;;;9.52;100.00
19447;BME280;9862;49.462;11.054;2024-02-21T08:10:10;98614.28;;;9.46;100.00
19447;BME280;9862;49.462;11.054;2024-02-21T08:12:37;98603.41;;;9.62;100.00
19447;BME280;9862;49.462;11.054;2024-02-21T08:15:04;98600.13;;;9.60;100.00
19447;BME280;9862;49.462;11.054;2024-02-21T08:17:31;98602.28;;;9.71;100.00
19447;BME280;9862;49.462;11.054;2024-02-21T08:19:58;98597.13;;;9.85;100.00
19447;BME280;9862;49.462;11.054;2024-02-21T08:22:25;98596.81;;;9.94;100.00
19447;BME280;9862;49.462;11.054;2024-02-21T08:24:53;98583.75;;;9.99;100.00
19447;BME280;9862;49.462;11.054;2024-02-21T08:27:19;98577.72;;;10.12;100.00
19447;BME280;9862;49.462;11.054;2024-02-21T08:29:46;98590.78;;;10.07;100.00
19447;BME280;9862;49.462;11.054;2024-02-21T08:32:13;98576.41;;;10.01;100.00
19447;BME280;9862;49.462;11.054;2024-02-21T08:34:39;98586.06;;;10.09;100.00
19447;BME280;9862;49.462;11.054;2024-02-21T08:37:06;98591.19;;;10.11;100.00
19447;BME280;9862;49.462;11.054;2024-02-21T08:39:33;98595.94;;;9.94;100.00
19447;BME280;9862;49.462;11.054;2024-02-21T08:42:01;98592.16;;;9.82;100.00
19447;BME280;9862;49.462;11.054;2024-02-21T08:44:28;98591.34;;;9.81;100.00
19447;BME280;9862;49.462;11.054;2024-02-21T08:46:55;98578.34;;;9.93;100.00
19447;BME280;9862;49.462;11.054;2024-02-21T08:49:22;98585.41;;;9.58;100.00
19447;BME280;9862;49.462;11.054;2024-02-21T08:51:48;98570.41;;;9.71;100.00
19447;BME280;9862;49.462;11.054;2024-02-21T08:54:15;98569.25;;;9.81;100.00
19447;BME280;9862;49.462;11.054;2024-02-21T08:56:42;98564.75;;;9.81;100.00
19447;BME280;9862;49.462;11.054;2024-02-21T08:59:10;98558.38;;;9.97;100.00
19447;BME280;9862;49.462;11.054;2024-02-21T09:01:37;98569.25;;;9.81;100.00
19447;BME280;9862;49.462;11.054;2024-02-21T09:04:03;98566.91;;;9.92;100.00
19447;BME280;9862;49.462;11.054;2024-02-21T09:06:30;98576.91;;;9.90;100.00
19447;BME280;9862;49.462;11.054;2024-02-21T09:08:58;98580.84;;;9.94;100.00
19447;BME280;9862;49.462;11.054;2024-02-21T09:11:25;98571.06;;;10.01;100.00
19447;BME280;9862;49.462;11.054;2024-02-21T09:13:53;98571.38;;;10.13;100.00
19447;BME280;9862;49.462;11.054;2024-02-21T09:16:21;98564.56;;;10.25;100.00
19447;BME280;9862;49.462;11.054;2024-02-21T09:18:48;98560.34;;;10.38;100.00
19447;BME280;9862;49.462;11.054;2024-02-21T09:21:14;98553.84;;;10.47;100.00
19447;BME280;9862;49.462;11.054;2024-02-21T09:23:41;98553.31;;;10.58;100.00
19447;BME280;9862;49.462;11.054;2024-02-21T09:26:08;98552.44;;;10.23;100.00
19447;BME280;9862;49.462;11.054;2024-02-21T09:28:39;98566.78;;;10.22;100.00
19447;BME280;9862;49.462;11.054;2024-02-21T09:31:05;98544.59;;;10.15;100.00
19447;BME280;9862;49.462;11.054;2024-02-21T09:33:33;98550.88;;;10.28;100.00
19447;BME280;9862;49.462;11.054;2024-02-21T09:36:01;98546.94;;;10.52;100.00
19447;BME280;9862;49.462;11.054;2024-02-21T09:38:27;98543.94;;;10.69;100.00
19447;BME280;9862;49.462;11.054;2024-02-21T09:40:59;98553.41;;;10.71;100.00
19447;BME280;9862;49.462;11.054;2024-02-21T09:43:26;98555.09;;;10.51;100.00
19447;BME280;9862;49.462;11.054;2024-02-21T09:45:54;98555.91;;;10.45;100.00
19447;BME280;9862;49.462;11.054;2024-02-21T09:48:41;98550.81;;;10.50;100.00
19447;BME280;9862;49.462;11.054;2024-02-21T09:51:11;98540.00;;;10.58;100.00
19447;BME280;9862;49.462;11.054;2024-02-21T09:53:40;98534.84;;;10.50;100.00
19447;BME280;9862;49.462;11.054;2024-02-21T09:56:08;98535.84;;;10.49;100.00
19447;BME280;9862;49.462;11.054;2024-02-21T09:58:36;98533.44;;;10.54;100.00
19447;BME280;9862;49.462;11.054;2024-02-21T10:01:03;98531.00;;;10.59;100.00
19447;BME280;9862;49.462;11.054;2024-02-21T10:03:32;98523.72;;;10.74;100.00
19447;BME280;9862;49.462;11.054;2024-02-21T10:06:00;98520.84;;;10.76;100.00
19447;BME280;9862;49.462;11.054;2024-02-21T10:08:27;98514.66;;;10.62;100.00
19447;BME280;9862;49.462;11.054;2024-02-21T10:10:54;98516.53;;;10.34;100.00
19447;BME280;9862;49.462;11.054;2024-02-21T10:13:25;98502.78;;;10.30;100.00
19447;BME280;9862;49.462;11.054;2024-02-21T10:16:03;98500.25;;;10.50;100.00
19447;BME280;9862;49.462;11.054;2024-02-21T10:18:30;98500.69;;;10.53;100.00
19447;BME280;9862;49.462;11.054;2024-02-21T10:21:02;98502.06;;;10.43;100.00
19447;BME280;9862;49.462;11.054;2024-02-21T10:23:41;98490.31;;;10.65;100.00
19447;BME280;9862;49.462;11.054;2024-02-21T10:26:08;98490.97;;;10.80;100.00
19447;BME280;9862;49.462;11.054;2024-02-21T10:28:34;98486.72;;;10.93;100.00
19447;BME280;9862;49.462;11.054;2024-02-21T10:31:01;98484.13;;;11.12;100.00
19447;BME280;9862;49.462;11.054;2024-02-21T10:33:28;98481.28;;;11.27;100.00
19447;BME280;9862;49.462;11.054;2024-02-21T10:36:07;98474.53;;;11.38;100.00
19447;BME280;9862;49.462;11.054;2024-02-21T10:38:36;98477.97;;;11.18;100.00
19447;BME280;9862;49.462;11.054;2024-02-21T10:41:04;98471.41;;;11.01;100.00
19447;BME280;9862;49.462;11.054;2024-02-21T10:43:37;98470.59;;;11.07;100.00
19447;BME280;9862;49.462;11.054;2024-02-21T10:46:05;98458.78;;;11.43;100.00
19447;BME280;9862;49.462;11.054;2024-02-21T10:48:41;98455.50;;;11.74;100.00
19447;BME280;9862;49.462;11.054;2024-02-21T10:51:15;98450.22;;;11.87;100.00
19447;BME280;9862;49.462;11.054;2024-02-21T10:53:45;98453.06;;;11.92;100.00
19447;BME280;9862;49.462;11.054;2024-02-21T10:56:22;98443.81;;;12.08;100.00
19447;BME280;9862;49.462;11.054;2024-02-21T10:58:49;98443.56;;;12.23;100.00
19447;BME280;9862;49.462;11.054;2024-02-21T11:01:17;98439.72;;;11.99;100.00
19447;BME280;9862;49.462;11.054;2024-02-21T11:03:46;98436.66;;;11.89;100.00
19447;BME280;9862;49.462;11.054;2024-02-21T11:06:15;98433.34;;;11.67;100.00
19447;BME280;9862;49.462;11.054;2024-02-21T11:08:43;98429.69;;;11.68;100.00
19447;BME280;9862;49.462;11.054;2024-02-21T11:11:12;98427.84;;;11.68;100.00
19447;BME280;9862;49.462;11.054;2024-02-21T11:13:42;98428.44;;;11.70;100.00
19447;BME280;9862;49.462;11.054;2024-02-21T11:16:10;98424.13;;;11.69;100.00
19447;BME280;9862;49.462;11.054;2024-02-21T11:18:38;98413.25;;;11.71;100.00
19447;BME280;9862;49.462;11.054;2024-02-21T11:21:04;98401.19;;;11.49;100.00
19447;BME280;9862;49.462;11.054;2024-02-21T11:23:33;98402.19;;;11.61;100.00
19447;BME280;9862;49.462;11.054;2024-02-21T11:26:06;98391.34;;;11.82;100.00
19447;BME280;9862;49.462;11.054;2024-02-21T11:28:33;98382.69;;;12.00;100.00
19447;BME280;9862;49.462;11.054;2024-02-21T11:31:06;98376.09;;;12.02;100.00
19447;BME280;9862;49.462;11.054;2024-02-21T11:33:34;98372.56;;;12.15;100.00
19447;BME280;9862;49.462;11.054;2024-02-21T11:36:01;98368.06;;;12.16;100.00
19447;BME280;9862;49.462;11.054;2024-02-21T11:38:29;98361.06;;;12.28;100.00
19447;BME280;9862;49.462;11.054;2024-02-21T11:40:57;98363.13;;;12.19;100.00
19447;BME280;9862;49.462;11.054;2024-02-21T11:43:24;98357.88;;;11.73;100.00
19447;BME280;9862;49.462;11.054;2024-02-21T11:45:58;98348.25;;;11.72;100.00
19447;BME280;9862;49.462;11.054;2024-02-21T11:48:25;98346.00;;;11.69;100.00
19447;BME280;9862;49.462;11.054;2024-02-21T11:50:53;98335.94;;;11.71;100.00
19447;BME280;9862;49.462;11.054;2024-02-21T11:53:20;98340.84;;;11.94;100.00
19447;BME280;9862;49.462;11.054;2024-02-21T11:55:47;98335.19;;;12.22;100.00
19447;BME280;9862;49.462;11.054;2024-02-21T11:58:16;98327.41;;;12.27;100.00
19447;BME280;9862;49.462;11.054;2024-02-21T12:00:43;98320.41;;;12.26;100.00
19447;BME280;9862;49.462;11.054;2024-02-21T12:03:09;98320.41;;;12.26;100.00
19447;BME280;9862;49.462;11.054;2024-02-21T12:05:36;98320.13;;;12.41;100.00
19447;BME280;9862;49.462;11.054;2024-02-21T12:08:04;98309.03;;;12.44;100.00
19447;BME280;9862;49.462;11.054;2024-02-21T12:10:31;98297.84;;;12.22;100.00
19447;BME280;9862;49.462;11.054;2024-02-21T12:13:08;98288.59;;;12.24;100.00
19447;BME280;9862;49.462;11.054;2024-02-21T12:15:36;98284.34;;;12.17;100.00
19447;BME280;9862;49.462;11.054;2024-02-21T12:18:04;98282.69;;;12.16;100.00
19447;BME280;9862;49.462;11.054;2024-02-21T12:20:31;98283.06;;;12.26;100.00
19447;BME280;9862;49.462;11.054;2024-02-21T12:23:00;98272.75;;;12.36;100.00
19447;BME280;9862;49.462;11.054;2024-02-21T12:25:28;98270.84;;;12.43;100.00
19447;BME280;9862;49.462;11.054;2024-02-21T12:27:55;98261.97;;;12.49;100.00
19447;BME280;9862;49.462;11.054;2024-02-21T12:30:22;98261.94;;;12.56;100.00
19447;BME280;9862;49.462;11.054;2024-02-21T12:32:50;98261.81;;;12.76;100.00
19447;BME280;9862;49.462;11.054;2024-02-21T12:35:16;98257.75;;;12.67;100.00
19447;BME280;9862;49.462;11.054;2024-02-21T12:37:44;98246.69;;;12.63;100.00
19447;BME280;9862;49.462;11.054;2024-02-21T12:40:11;98248.19;;;12.84;100.00
19447;BME280;9862;49.462;11.054;2024-02-21T12:42:38;98237.94;;;12.81;100.00
19447;BME280;9862;49.462;11.054;2024-02-21T12:45:06;98227.41;;;12.86;100.00
19447;BME280;9862;49.462;11.054;2024-02-21T12:47:33;98222.91;;;12.86;100.00
19447;BME280;9862;49.462;11.054;2024-02-21T12:50:01;98206.88;;;12.86;100.00
19447;BME280;9862;49.462;11.054;2024-02-21T12:52:28;98206.19;;;12.91;100.00
19447;BME280;9862;49.462;11.054;2024-02-21T12:54:56;98203.66;;;12.78;100.00
19447;BME280;9862;49.462;11.054;2024-02-21T12:57:24;98197.03;;;12.80;100.00